sensor_id;sensor_type;location;lat;lon;timestamp;P1;durP1;ratioP1;P2;durP2;ratioP2
32319;SDS011;19080;51.750;5.888;2024-03-25T00:00:38;12.68;;;3.20;;
32319;SDS011;19080;51.750;5.888;2024-03-25T00:03:04;20.80;;;3.33;;
32319;SDS011;19080;51.750;5.888;2024-03-25T00:05:30;16.92;;;3.22;;
32319;SDS011;19080;51.750;5.888;2024-03-25T00:07:57;17.33;;;3.60;;
32319;SDS011;19080;51.750;5.888;2024-03-25T00:10:24;15.38;;;3.65;;
32319;SDS011;19080;51.750;5.888;2024-03-25T00:12:49;19.92;;;3.30;;
32319;SDS011;19080;51.750;5.888;2024-03-25T00:15:20;19.83;;;3.83;;
32319;SDS011;19080;51.750;5.888;2024-03-25T00:17:46;22.98;;;3.95;;
32319;SDS011;19080;51.750;5.888;2024-03-25T00:20:13;14.57;;;3.03;;
32319;SDS011;19080;51.750;5.888;2024-03-25T00:22:40;22.35;;;3.55;;
32319;SDS011;19080;51.750;5.888;2024-03-25T00:25:07;20.85;;;4.38;;
32319;SDS011;19080;51.750;5.888;2024-03-25T00:27:34;17.10;;;3.47;;
32319;SDS011;19080;51.750;5.888;2024-03-25T00:30:00;22.42;;;4.13;;
32319;SDS011;19080;51.750;5.888;2024-03-25T00:32:25;23.92;;;5.03;;
32319;SDS011;19080;51.750;5.888;2024-03-25T00:34:51;23.70;;;4.78;;
32319;SDS011;19080;51.750;5.888;2024-03-25T00:37:17;20.05;;;4.68;;
32319;SDS011;19080;51.750;5.888;2024-03-25T00:39:43;25.88;;;4.38;;
32319;SDS011;19080;51.750;5.888;2024-03-25T00:42:08;21.85;;;5.05;;
32319;SDS011;19080;51.750;5.888;2024-03-25T00:44:34;18.08;;;4.80;;
32319;SDS011;19080;51.750;5.888;2024-03-25T00:47:00;26.35;;;4.72;;
32319;SDS011;19080;51.750;5.888;2024-03-25T00:49:26;13.52;;;3.75;;
32319;SDS011;19080;51.750;5.888;2024-03-25T00:51:52;23.45;;;4.57;;
32319;SDS011;19080;51.750;5.888;2024-03-25T00:54:17;19.05;;;5.28;;
32319;SDS011;19080;51.750;5.888;2024-03-25T00:56:43;23.25;;;4.18;;
32319;SDS011;19080;51.750;5.888;2024-03-25T00:59:09;17.75;;;4.38;;
32319;SDS011;19080;51.750;5.888;2024-03-25T01:01:35;11.07;;;3.90;;
32319;SDS011;19080;51.750;5.888;2024-03-25T01:04:04;19.67;;;4.47;;
32319;SDS011;19080;51.750;5.888;2024-03-25T01:06:30;24.83;;;4.90;;
32319;SDS011;19080;51.750;5.888;2024-03-25T01:08:56;13.70;;;4.72;;
32319;SDS011;19080;51.750;5.888;2024-03-25T01:11:21;19.73;;;5.13;;
32319;SDS011;19080;51.750;5.888;2024-03-25T01:13:48;20.52;;;4.78;;
32319;SDS011;19080;51.750;5.888;2024-03-25T01:16:14;20.10;;;5.05;;
32319;SDS011;19080;51.750;5.888;2024-03-25T01:18:40;25.40;;;4.43;;
32319;SDS011;19080;51.750;5.888;2024-03-25T01:21:06;16.55;;;4.20;;
32319;SDS011;19080;51.750;5.888;2024-03-25T01:23:31;26.52;;;5.03;;
32319;SDS011;19080;51.750;5.888;2024-03-25T01:25:57;30.60;;;5.45;;
32319;SDS011;19080;51.750;5.888;2024-03-25T01:28:23;19.88;;;5.35;;
32319;SDS011;19080;51.750;5.888;2024-03-25T01:30:49;13.50;;;4.15;;
32319;SDS011;19080;51.750;5.888;2024-03-25T01:33:15;20.70;;;4.88;;
32319;SDS011;19080;51.750;5.888;2024-03-25T01:35:41;23.92;;;4.38;;
32319;SDS011;19080;51.750;5.888;2024-03-25T01:38:08;38.47;;;5.80;;
32319;SDS011;19080;51.750;5.888;2024-03-25T01:40:34;20.67;;;5.82;;
32319;SDS011;19080;51.750;5.888;2024-03-25T01:43:00;22.90;;;5.57;;
32319;SDS011;19080;51.750;5.888;2024-03-25T01:45:31;25.95;;;5.72;;
32319;SDS011;19080;51.750;5.888;2024-03-25T01:48:01;21.02;;;5.05;;
32319;SDS011;19080;51.750;5.888;2024-03-25T01:50:28;18.80;;;4.97;;
32319;SDS011;19080;51.750;5.888;2024-03-25T01:52:56;18.38;;;5.20;;
32319;SDS011;19080;51.750;5.888;2024-03-25T01:55:24;21.40;;;4.82;;
32319;SDS011;19080;51.750;5.888;2024-03-25T01:57:52;28.50;;;6.10;;
32319;SDS011;19080;51.750;5.888;2024-03-25T02:00:19;24.98;;;4.97;;
32319;SDS011;19080;51.750;5.888;2024-03-25T02:02:46;28.92;;;6.88;;
32319;SDS011;19080;51.750;5.888;2024-03-25T02:05:16;28.80;;;6.82;;
32319;SDS011;19080;51.750;5.888;2024-03-25T02:07:43;22.83;;;5.53;;
32319;SDS011;19080;51.750;5.888;2024-03-25T02:10:09;27.02;;;5.90;;
32319;SDS011;19080;51.750;5.888;2024-03-25T02:12:36;35.13;;;5.47;;
32319;SDS011;19080;51.750;5.888;2024-03-25T02:15:06;25.42;;;5.95;;
32319;SDS011;19080;51.750;5.888;2024-03-25T02:17:33;21.85;;;4.70;;
32319;SDS011;19080;51.750;5.888;2024-03-25T02:20:00;28.75;;;5.80;;
32319;SDS011;19080;51.750;5.888;2024-03-25T02:22:28;20.02;;;5.63;;
32319;SDS011;19080;51.750;5.888;2024-03-25T02:24:56;27.50;;;5.18;;
32319;SDS011;19080;51.750;5.888;2024-03-25T02:27:23;26.05;;;5.43;;
32319;SDS011;19080;51.750;5.888;2024-03-25T02:29:50;27.33;;;6.30;;
32319;SDS011;19080;51.750;5.888;2024-03-25T02:32:16;23.35;;;5.18;;
32319;SDS011;19080;51.750;5.888;2024-03-25T02:34:46;21.23;;;5.10;;
32319;SDS011;19080;51.750;5.888;2024-03-25T02:37:18;18.98;;;4.85;;
32319;SDS011;19080;51.750;5.888;2024-03-25T02:39:44;24.42;;;5.95;;
32319;SDS011;19080;51.750;5.888;2024-03-25T02:42:10;25.58;;;5.68;;
32319;SDS011;19080;51.750;5.888;2024-03-25T02:44:37;25.70;;;4.55;;
32319;SDS011;19080;51.750;5.888;2024-03-25T02:47:03;28.15;;;5.60;;
32319;SDS011;19080;51.750;5.888;2024-03-25T02:49:30;25.23;;;5.00;;
32319;SDS011;19080;51.750;5.888;2024-03-25T02:51:56;28.60;;;5.55;;
32319;SDS011;19080;51.750;5.888;2024-03-25T02:54:21;32.72;;;5.90;;
32319;SDS011;19080;51.750;5.888;2024-03-25T02:56:47;14.00;;;4.28;;
32319;SDS011;19080;51.750;5.888;2024-03-25T02:59:13;17.85;;;4.07;;
32319;SDS011;19080;51.750;5.888;2024-03-25T03:01:39;15.95;;;3.60;;
32319;SDS011;19080;51.750;5.888;2024-03-25T03:04:04;22.88;;;4.75;;
32319;SDS011;19080;51.750;5.888;2024-03-25T03:06:30;17.30;;;4.55;;
32319;SDS011;19080;51.750;5.888;2024-03-25T03:08:56;23.08;;;4.85;;
32319;SDS011;19080;51.750;5.888;2024-03-25T03:11:21;12.90;;;4.70;;
32319;SDS011;19080;51.750;5.888;2024-03-25T03:13:47;14.75;;;4.32;;
32319;SDS011;19080;51.750;5.888;2024-03-25T03:16:13;17.27;;;4.40;;
32319;SDS011;19080;51.750;5.888;2024-03-25T03:18:39;14.45;;;3.83;;
32319;SDS011;19080;51.750;5.888;2024-03-25T03:21:05;16.70;;;3.70;;
32319;SDS011;19080;51.750;5.888;2024-03-25T03:23:31;16.02;;;4.63;;
32319;SDS011;19080;51.750;5.888;2024-03-25T03:25:57;15.07;;;3.92;;
32319;SDS011;19080;51.750;5.888;2024-03-25T03:28:25;13.95;;;4.05;;
32319;SDS011;19080;51.750;5.888;2024-03-25T03:30:51;21.15;;;4.75;;
32319;SDS011;19080;51.750;5.888;2024-03-25T03:33:16;21.98;;;4.75;;
32319;SDS011;19080;51.750;5.888;2024-03-25T03:35:42;16.83;;;4.43;;
32319;SDS011;19080;51.750;5.888;2024-03-25T03:38:08;20.17;;;3.97;;
32319;SDS011;19080;51.750;5.888;2024-03-25T03:40:34;9.60;;;3.20;;
32319;SDS011;19080;51.750;5.888;2024-03-25T03:43:00;11.00;;;4.20;;
32319;SDS011;19080;51.750;5.888;2024-03-25T03:45:25;15.73;;;4.13;;
32319;SDS011;19080;51.750;5.888;2024-03-25T03:47:51;9.70;;;3.47;;
32319;SDS011;19080;51.750;5.888;2024-03-25T03:50:17;17.75;;;3.70;;
32319;SDS011;19080;51.750;5.888;2024-03-25T03:52:43;16.15;;;3.72;;
32319;SDS011;19080;51.750;5.888;2024-03-25T03:55:08;9.98;;;4.32;;
32319;SDS011;19080;51.750;5.888;2024-03-25T03:57:34;14.43;;;4.30;;
32319;SDS011;19080;51.750;5.888;2024-03-25T04:00:00;17.85;;;3.65;;
32319;SDS011;19080;51.750;5.888;2024-03-25T04:02:27;12.77;;;3.40;;
32319;SDS011;19080;51.750;5.888;2024-03-25T04:04:54;6.80;;;3.00;;
32319;SDS011;19080;51.750;5.888;2024-03-25T04:07:21;12.45;;;3.50;;
32319;SDS011;19080;51.750;5.888;2024-03-25T04:09:53;13.35;;;3.47;;
32319;SDS011;19080;51.750;5.888;2024-03-25T04:12:19;9.40;;;2.92;;
32319;SDS011;19080;51.750;5.888;2024-03-25T04:14:48;14.57;;;3.97;;
32319;SDS011;19080;51.750;5.888;2024-03-25T04:17:20;15.25;;;3.67;;
32319;SDS011;19080;51.750;5.888;2024-03-25T04:19:48;10.32;;;3.90;;
32319;SDS011;19080;51.750;5.888;2024-03-25T04:22:14;14.25;;;3.38;;
32319;SDS011;19080;51.750;5.888;2024-03-25T04:24:40;11.77;;;3.85;;
32319;SDS011;19080;51.750;5.888;2024-03-25T04:27:06;6.68;;;2.85;;
32319;SDS011;19080;51.750;5.888;2024-03-25T04:29:32;9.63;;;3.20;;
32319;SDS011;19080;51.750;5.888;2024-03-25T04:31:57;15.65;;;3.28;;
32319;SDS011;19080;51.750;5.888;2024-03-25T04:34:23;16.70;;;3.38;;
32319;SDS011;19080;51.750;5.888;2024-03-25T04:36:49;11.73;;;4.38;;
32319;SDS011;19080;51.750;5.888;2024-03-25T04:39:15;19.02;;;4.90;;
32319;SDS011;19080;51.750;5.888;2024-03-25T04:41:40;11.30;;;4.13;;
32319;SDS011;19080;51.750;5.888;2024-03-25T04:44:06;11.93;;;3.88;;
32319;SDS011;19080;51.750;5.888;2024-03-25T04:46:32;10.25;;;3.25;;
32319;SDS011;19080;51.750;5.888;2024-03-25T04:48:58;21.55;;;4.05;;
32319;SDS011;19080;51.750;5.888;2024-03-25T04:51:23;11.23;;;3.53;;
32319;SDS011;19080;51.750;5.888;2024-03-25T04:53:49;12.10;;;4.57;;
32319;SDS011;19080;51.750;5.888;2024-03-25T04:56:15;11.00;;;3.28;;
32319;SDS011;19080;51.750;5.888;2024-03-25T04:58:41;16.73;;;4.60;;
32319;SDS011;19080;51.750;5.888;2024-03-25T05:01:06;12.95;;;3.33;;
32319;SDS011;19080;51.750;5.888;2024-03-25T05:03:32;12.43;;;3.90;;
32319;SDS011;19080;51.750;5.888;2024-03-25T05:05:58;10.38;;;3.03;;
32319;SDS011;19080;51.750;5.888;2024-03-25T05:08:24;11.50;;;3.33;;
32319;SDS011;19080;51.750;5.888;2024-03-25T05:10:50;10.60;;;3.72;;
32319;SDS011;19080;51.750;5.888;2024-03-25T05:13:16;12.20;;;3.45;;
32319;SDS011;19080;51.750;5.888;2024-03-25T05:15:49;10.75;;;4.00;;
32319;SDS011;19080;51.750;5.888;2024-03-25T05:18:18;12.25;;;3.67;;
32319;SDS011;19080;51.750;5.888;2024-03-25T05:20:44;10.95;;;3.20;;
32319;SDS011;19080;51.750;5.888;2024-03-25T05:23:10;15.75;;;4.85;;
32319;SDS011;19080;51.750;5.888;2024-03-25T05:25:36;13.10;;;3.67;;
32319;SDS011;19080;51.750;5.888;2024-03-25T05:28:04;16.45;;;4.05;;
32319;SDS011;19080;51.750;5.888;2024-03-25T05:30:30;12.98;;;4.05;;
32319;SDS011;19080;51.750;5.888;2024-03-25T05:32:56;20.67;;;4.63;;
32319;SDS011;19080;51.750;5.888;2024-03-25T05:35:21;17.45;;;4.60;;
32319;SDS011;19080;51.750;5.888;2024-03-25T05:37:47;11.65;;;3.95;;
32319;SDS011;19080;51.750;5.888;2024-03-25T05:40:13;16.90;;;5.20;;
32319;SDS011;19080;51.750;5.888;2024-03-25T05:42:40;14.07;;;4.07;;
32319;SDS011;19080;51.750;5.888;2024-03-25T05:45:06;16.77;;;4.53;;
32319;SDS011;19080;51.750;5.888;2024-03-25T05:47:34;13.70;;;4.85;;
32319;SDS011;19080;51.750;5.888;2024-03-25T05:50:00;11.55;;;4.25;;
32319;SDS011;19080;51.750;5.888;2024-03-25T05:52:31;11.05;;;4.20;;
32319;SDS011;19080;51.750;5.888;2024-03-25T05:54:57;15.38;;;4.93;;
32319;SDS011;19080;51.750;5.888;2024-03-25T05:57:23;15.07;;;4.53;;
32319;SDS011;19080;51.750;5.888;2024-03-25T05:59:49;17.70;;;5.90;;
32319;SDS011;19080;51.750;5.888;2024-03-25T06:02:14;16.35;;;5.30;;
32319;SDS011;19080;51.750;5.888;2024-03-25T06:04:40;13.95;;;5.10;;
32319;SDS011;19080;51.750;5.888;2024-03-25T06:07:06;14.00;;;5.95;;
32319;SDS011;19080;51.750;5.888;2024-03-25T06:09:32;20.50;;;6.78;;
32319;SDS011;19080;51.750;5.888;2024-03-25T06:11:57;15.93;;;6.47;;
32319;SDS011;19080;51.750;5.888;2024-03-25T06:14:23;17.90;;;6.00;;
32319;SDS011;19080;51.750;5.888;2024-03-25T06:16:49;19.08;;;8.10;;
32319;SDS011;19080;51.750;5.888;2024-03-25T06:19:15;14.85;;;7.10;;
32319;SDS011;19080;51.750;5.888;2024-03-25T06:21:41;22.52;;;7.03;;
32319;SDS011;19080;51.750;5.888;2024-03-25T06:24:08;13.40;;;6.65;;
32319;SDS011;19080;51.750;5.888;2024-03-25T06:26:34;18.98;;;7.95;;
32319;SDS011;19080;51.750;5.888;2024-03-25T06:29:01;15.60;;;8.55;;
32319;SDS011;19080;51.750;5.888;2024-03-25T06:31:28;22.23;;;9.40;;
32319;SDS011;19080;51.750;5.888;2024-03-25T06:34:20;13.73;;;7.78;;
32319;SDS011;19080;51.750;5.888;2024-03-25T06:36:48;21.25;;;7.70;;
32319;SDS011;19080;51.750;5.888;2024-03-25T06:39:14;23.33;;;8.35;;
32319;SDS011;19080;51.750;5.888;2024-03-25T06:41:41;18.77;;;7.65;;
32319;SDS011;19080;51.750;5.888;2024-03-25T06:44:07;20.27;;;8.80;;
32319;SDS011;19080;51.750;5.888;2024-03-25T06:46:33;20.60;;;10.48;;
32319;SDS011;19080;51.750;5.888;2024-03-25T06:48:59;27.65;;;11.18;;
32319;SDS011;19080;51.750;5.888;2024-03-25T06:51:25;17.30;;;8.45;;
32319;SDS011;19080;51.750;5.888;2024-03-25T06:53:51;20.65;;;9.07;;
32319;SDS011;19080;51.750;5.888;2024-03-25T06:56:17;18.80;;;8.07;;
32319;SDS011;19080;51.750;5.888;2024-03-25T06:58:43;12.52;;;5.82;;
32319;SDS011;19080;51.750;5.888;2024-03-25T07:01:09;17.67;;;6.90;;
32319;SDS011;19080;51.750;5.888;2024-03-25T07:03:38;15.05;;;6.85;;
32319;SDS011;19080;51.750;5.888;2024-03-25T07:06:04;17.95;;;7.13;;
32319;SDS011;19080;51.750;5.888;2024-03-25T07:08:31;17.52;;;7.57;;
32319;SDS011;19080;51.750;5.888;2024-03-25T07:10:57;16.25;;;7.65;;
32319;SDS011;19080;51.750;5.888;2024-03-25T07:13:23;15.07;;;7.47;;
32319;SDS011;19080;51.750;5.888;2024-03-25T07:15:49;16.88;;;7.60;;
32319;SDS011;19080;51.750;5.888;2024-03-25T07:18:16;22.90;;;7.97;;
32319;SDS011;19080;51.750;5.888;2024-03-25T07:20:42;14.88;;;7.47;;
32319;SDS011;19080;51.750;5.888;2024-03-25T07:23:10;17.45;;;7.97;;
32319;SDS011;19080;51.750;5.888;2024-03-25T07:25:36;15.45;;;7.10;;
32319;SDS011;19080;51.750;5.888;2024-03-25T07:28:03;21.00;;;8.07;;
32319;SDS011;19080;51.750;5.888;2024-03-25T07:30:29;20.92;;;8.07;;
32319;SDS011;19080;51.750;5.888;2024-03-25T07:32:56;17.95;;;7.43;;
32319;SDS011;19080;51.750;5.888;2024-03-25T07:35:23;21.00;;;8.60;;
32319;SDS011;19080;51.750;5.888;2024-03-25T07:37:49;15.48;;;7.00;;
32319;SDS011;19080;51.750;5.888;2024-03-25T07:40:18;17.88;;;7.07;;
32319;SDS011;19080;51.750;5.888;2024-03-25T07:42:44;13.25;;;6.55;;
32319;SDS011;19080;51.750;5.888;2024-03-25T07:45:10;20.60;;;8.73;;
32319;SDS011;19080;51.750;5.888;2024-03-25T07:47:36;14.80;;;7.40;;
32319;SDS011;19080;51.750;5.888;2024-03-25T07:50:02;13.60;;;7.10;;
32319;SDS011;19080;51.750;5.888;2024-03-25T07:52:28;19.98;;;8.20;;
32319;SDS011;19080;51.750;5.888;2024-03-25T07:54:54;14.13;;;7.10;;
32319;SDS011;19080;51.750;5.888;2024-03-25T07:57:20;15.93;;;7.80;;
32319;SDS011;19080;51.750;5.888;2024-03-25T07:59:46;18.83;;;7.65;;
32319;SDS011;19080;51.750;5.888;2024-03-25T08:02:12;18.67;;;7.80;;
32319;SDS011;19080;51.750;5.888;2024-03-25T08:04:38;17.45;;;7.97;;
32319;SDS011;19080;51.750;5.888;2024-03-25T08:07:04;13.38;;;6.85;;
32319;SDS011;19080;51.750;5.888;2024-03-25T08:09:30;17.83;;;8.15;;
32319;SDS011;19080;51.750;5.888;2024-03-25T08:11:56;14.88;;;7.55;;
32319;SDS011;19080;51.750;5.888;2024-03-25T08:14:22;13.88;;;8.15;;
32319;SDS011;19080;51.750;5.888;2024-03-25T08:16:48;20.23;;;9.02;;
32319;SDS011;19080;51.750;5.888;2024-03-25T08:19:14;14.95;;;7.82;;
32319;SDS011;19080;51.750;5.888;2024-03-25T08:21:40;16.35;;;7.63;;
32319;SDS011;19080;51.750;5.888;2024-03-25T08:24:06;20.65;;;8.48;;
32319;SDS011;19080;51.750;5.888;2024-03-25T08:26:32;19.40;;;8.18;;
32319;SDS011;19080;51.750;5.888;2024-03-25T08:28:58;15.23;;;7.80;;
32319;SDS011;19080;51.750;5.888;2024-03-25T08:31:24;18.38;;;8.48;;
32319;SDS011;19080;51.750;5.888;2024-03-25T08:33:50;17.98;;;8.23;;
32319;SDS011;19080;51.750;5.888;2024-03-25T08:36:16;16.02;;;6.93;;
32319;SDS011;19080;51.750;5.888;2024-03-25T08:38:44;14.20;;;7.15;;
32319;SDS011;19080;51.750;5.888;2024-03-25T08:41:10;16.40;;;7.57;;
32319;SDS011;19080;51.750;5.888;2024-03-25T08:43:35;16.20;;;7.57;;
32319;SDS011;19080;51.750;5.888;2024-03-25T08:46:01;21.63;;;8.85;;
32319;SDS011;19080;51.750;5.888;2024-03-25T08:48:29;19.15;;;7.40;;
32319;SDS011;19080;51.750;5.888;2024-03-25T08:50:55;19.52;;;8.00;;
32319;SDS011;19080;51.750;5.888;2024-03-25T08:53:21;17.40;;;7.13;;
32319;SDS011;19080;51.750;5.888;2024-03-25T08:55:47;15.90;;;6.90;;
32319;SDS011;19080;51.750;5.888;2024-03-25T08:58:14;18.30;;;7.18;;
32319;SDS011;19080;51.750;5.888;2024-03-25T09:00:40;14.48;;;6.78;;
32319;SDS011;19080;51.750;5.888;2024-03-25T09:03:06;13.70;;;6.68;;
32319;SDS011;19080;51.750;5.888;2024-03-25T09:05:31;15.63;;;6.18;;
32319;SDS011;19080;51.750;5.888;2024-03-25T09:07:59;13.82;;;6.20;;
32319;SDS011;19080;51.750;5.888;2024-03-25T09:10:25;18.50;;;6.65;;
32319;SDS011;19080;51.750;5.888;2024-03-25T09:13:09;14.48;;;5.97;;
32319;SDS011;19080;51.750;5.888;2024-03-25T09:15:35;15.60;;;5.35;;
32319;SDS011;19080;51.750;5.888;2024-03-25T09:18:01;13.25;;;5.40;;
32319;SDS011;19080;51.750;5.888;2024-03-25T09:20:28;12.00;;;5.50;;
32319;SDS011;19080;51.750;5.888;2024-03-25T09:22:53;12.05;;;5.38;;
32319;SDS011;19080;51.750;5.888;2024-03-25T09:25:19;13.63;;;5.63;;
32319;SDS011;19080;51.750;5.888;2024-03-25T09:27:46;13.25;;;5.82;;
32319;SDS011;19080;51.750;5.888;2024-03-25T09:30:12;11.60;;;5.20;;
32319;SDS011;19080;51.750;5.888;2024-03-25T09:32:39;14.02;;;6.03;;
32319;SDS011;19080;51.750;5.888;2024-03-25T09:35:08;16.15;;;6.15;;
32319;SDS011;19080;51.750;5.888;2024-03-25T09:37:35;13.45;;;6.13;;
32319;SDS011;19080;51.750;5.888;2024-03-25T09:40:01;13.82;;;5.88;;
32319;SDS011;19080;51.750;5.888;2024-03-25T09:45:11;13.57;;;5.20;;
32319;SDS011;19080;51.750;5.888;2024-03-25T09:47:39;12.52;;;4.90;;
32319;SDS011;19080;51.750;5.888;2024-03-25T09:50:06;13.68;;;4.53;;
32319;SDS011;19080;51.750;5.888;2024-03-25T09:52:33;13.10;;;4.43;;
32319;SDS011;19080;51.750;5.888;2024-03-25T09:55:00;10.27;;;4.50;;
32319;SDS011;19080;51.750;5.888;2024-03-25T09:57:25;12.50;;;4.45;;
32319;SDS011;19080;51.750;5.888;2024-03-25T09:59:52;12.13;;;4.82;;
32319;SDS011;19080;51.750;5.888;2024-03-25T10:02:18;11.65;;;4.28;;
32319;SDS011;19080;51.750;5.888;2024-03-25T10:04:45;12.52;;;4.32;;
32319;SDS011;19080;51.750;5.888;2024-03-25T10:07:21;13.85;;;4.30;;
32319;SDS011;19080;51.750;5.888;2024-03-25T10:09:48;11.13;;;4.20;;
32319;SDS011;19080;51.750;5.888;2024-03-25T10:12:17;14.88;;;4.50;;
32319;SDS011;19080;51.750;5.888;2024-03-25T10:14:43;15.85;;;5.70;;
32319;SDS011;19080;51.750;5.888;2024-03-25T10:17:09;12.43;;;4.68;;
32319;SDS011;19080;51.750;5.888;2024-03-25T10:19:35;17.42;;;4.63;;
32319;SDS011;19080;51.750;5.888;2024-03-25T10:22:04;12.75;;;4.60;;
32319;SDS011;19080;51.750;5.888;2024-03-25T10:24:38;15.52;;;5.10;;
32319;SDS011;19080;51.750;5.888;2024-03-25T10:27:05;11.98;;;4.53;;
32319;SDS011;19080;51.750;5.888;2024-03-25T10:29:31;13.88;;;5.28;;
32319;SDS011;19080;51.750;5.888;2024-03-25T10:32:00;15.45;;;5.18;;
32319;SDS011;19080;51.750;5.888;2024-03-25T10:34:27;11.90;;;3.92;;
32319;SDS011;19080;51.750;5.888;2024-03-25T10:36:55;11.48;;;5.05;;
32319;SDS011;19080;51.750;5.888;2024-03-25T10:39:26;13.23;;;4.43;;
32319;SDS011;19080;51.750;5.888;2024-03-25T10:41:56;16.25;;;5.72;;
32319;SDS011;19080;51.750;5.888;2024-03-25T10:44:24;10.57;;;4.53;;
32319;SDS011;19080;51.750;5.888;2024-03-25T10:46:58;11.23;;;4.55;;
32319;SDS011;19080;51.750;5.888;2024-03-25T10:49:32;12.50;;;4.22;;
32319;SDS011;19080;51.750;5.888;2024-03-25T10:52:26;11.60;;;4.15;;
32319;SDS011;19080;51.750;5.888;2024-03-25T10:54:54;11.88;;;4.05;;
32319;SDS011;19080;51.750;5.888;2024-03-25T10:57:20;18.63;;;4.50;;
32319;SDS011;19080;51.750;5.888;2024-03-25T10:59:46;8.02;;;4.07;;
32319;SDS011;19080;51.750;5.888;2024-03-25T11:02:13;13.38;;;4.20;;
32319;SDS011;19080;51.750;5.888;2024-03-25T11:04:40;13.75;;;4.25;;
32319;SDS011;19080;51.750;5.888;2024-03-25T11:07:14;12.38;;;4.88;;
32319;SDS011;19080;51.750;5.888;2024-03-25T11:09:41;10.98;;;4.45;;
32319;SDS011;19080;51.750;5.888;2024-03-25T11:12:10;10.35;;;4.55;;
32319;SDS011;19080;51.750;5.888;2024-03-25T11:14:37;10.13;;;4.25;;
32319;SDS011;19080;51.750;5.888;2024-03-25T11:17:13;9.85;;;4.63;;
32319;SDS011;19080;51.750;5.888;2024-03-25T11:19:41;9.95;;;4.10;;
32319;SDS011;19080;51.750;5.888;2024-03-25T11:22:07;9.25;;;4.43;;
32319;SDS011;19080;51.750;5.888;2024-03-25T11:24:35;11.10;;;4.45;;
32319;SDS011;19080;51.750;5.888;2024-03-25T11:27:07;9.68;;;4.00;;
32319;SDS011;19080;51.750;5.888;2024-03-25T11:29:34;9.32;;;4.20;;
32319;SDS011;19080;51.750;5.888;2024-03-25T11:32:03;8.60;;;4.65;;
32319;SDS011;19080;51.750;5.888;2024-03-25T11:34:30;7.35;;;4.18;;
32319;SDS011;19080;51.750;5.888;2024-03-25T11:36:56;8.82;;;4.70;;
32319;SDS011;19080;51.750;5.888;2024-03-25T11:39:23;7.80;;;3.83;;
32319;SDS011;19080;51.750;5.888;2024-03-25T11:41:50;10.32;;;5.15;;
32319;SDS011;19080;51.750;5.888;2024-03-25T11:44:16;11.38;;;5.05;;
32319;SDS011;19080;51.750;5.888;2024-03-25T11:46:43;7.55;;;4.35;;
32319;SDS011;19080;51.750;5.888;2024-03-25T11:49:12;10.57;;;4.70;;
32319;SDS011;19080;51.750;5.888;2024-03-25T11:51:42;8.60;;;4.82;;
32319;SDS011;19080;51.750;5.888;2024-03-25T11:54:10;8.90;;;4.55;;
32319;SDS011;19080;51.750;5.888;2024-03-25T11:56:36;9.02;;;5.55;;
32319;SDS011;19080;51.750;5.888;2024-03-25T11:59:05;9.73;;;4.88;;
32319;SDS011;19080;51.750;5.888;2024-03-25T12:01:32;11.15;;;5.13;;
32319;SDS011;19080;51.750;5.888;2024-03-25T12:04:09;10.68;;;4.53;;
32319;SDS011;19080;51.750;5.888;2024-03-25T12:06:35;7.70;;;4.45;;
32319;SDS011;19080;51.750;5.888;2024-03-25T12:09:01;8.90;;;4.60;;
32319;SDS011;19080;51.750;5.888;2024-03-25T12:11:45;6.85;;;4.03;;
32319;SDS011;19080;51.750;5.888;2024-03-25T12:14:14;5.03;;;3.42;;
32319;SDS011;19080;51.750;5.888;2024-03-25T12:16:41;7.13;;;4.03;;
32319;SDS011;19080;51.750;5.888;2024-03-25T12:19:07;7.43;;;3.83;;
32319;SDS011;19080;51.750;5.888;2024-03-25T12:21:33;9.75;;;4.63;;
32319;SDS011;19080;51.750;5.888;2024-03-25T12:23:59;10.82;;;4.90;;
32319;SDS011;19080;51.750;5.888;2024-03-25T12:26:25;7.60;;;4.70;;
32319;SDS011;19080;51.750;5.888;2024-03-25T12:28:51;9.75;;;5.75;;
32319;SDS011;19080;51.750;5.888;2024-03-25T12:31:17;13.77;;;5.85;;
32319;SDS011;19080;51.750;5.888;2024-03-25T12:33:43;7.55;;;4.40;;
32319;SDS011;19080;51.750;5.888;2024-03-25T12:36:12;11.68;;;5.47;;
32319;SDS011;19080;51.750;5.888;2024-03-25T12:38:39;11.43;;;5.47;;
32319;SDS011;19080;51.750;5.888;2024-03-25T12:41:08;7.03;;;4.18;;
32319;SDS011;19080;51.750;5.888;2024-03-25T12:43:36;6.82;;;3.92;;
32319;SDS011;19080;51.750;5.888;2024-03-25T12:46:07;7.55;;;3.85;;
32319;SDS011;19080;51.750;5.888;2024-03-25T12:48:34;10.27;;;4.53;;
32319;SDS011;19080;51.750;5.888;2024-03-25T12:51:01;7.60;;;4.50;;
32319;SDS011;19080;51.750;5.888;2024-03-25T12:53:26;8.85;;;4.60;;
32319;SDS011;19080;51.750;5.888;2024-03-25T12:55:52;6.93;;;4.15;;
32319;SDS011;19080;51.750;5.888;2024-03-25T12:58:18;8.45;;;4.68;;
32319;SDS011;19080;51.750;5.888;2024-03-25T13:00:44;8.00;;;4.78;;
32319;SDS011;19080;51.750;5.888;2024-03-25T13:03:10;8.10;;;4.70;;
32319;SDS011;19080;51.750;5.888;2024-03-25T13:05:37;9.75;;;4.68;;
32319;SDS011;19080;51.750;5.888;2024-03-25T13:08:03;8.25;;;4.97;;
32319;SDS011;19080;51.750;5.888;2024-03-25T13:10:30;8.48;;;4.65;;
32319;SDS011;19080;51.750;5.888;2024-03-25T13:12:56;10.45;;;4.95;;
32319;SDS011;19080;51.750;5.888;2024-03-25T13:15:22;8.20;;;4.53;;
32319;SDS011;19080;51.750;5.888;2024-03-25T13:17:48;9.00;;;4.07;;
32319;SDS011;19080;51.750;5.888;2024-03-25T13:20:14;10.10;;;5.18;;
32319;SDS011;19080;51.750;5.888;2024-03-25T13:22:40;4.80;;;3.67;;
32319;SDS011;19080;51.750;5.888;2024-03-25T13:25:06;6.70;;;3.80;;
32319;SDS011;19080;51.750;5.888;2024-03-25T13:27:32;8.30;;;4.13;;
32319;SDS011;19080;51.750;5.888;2024-03-25T13:29:58;6.93;;;3.63;;
32319;SDS011;19080;51.750;5.888;2024-03-25T13:32:24;7.22;;;4.20;;
32319;SDS011;19080;51.750;5.888;2024-03-25T13:34:50;8.43;;;3.72;;
32319;SDS011;19080;51.750;5.888;2024-03-25T13:37:16;9.27;;;4.28;;
32319;SDS011;19080;51.750;5.888;2024-03-25T13:39:44;7.35;;;3.28;;
32319;SDS011;19080;51.750;5.888;2024-03-25T13:42:11;6.70;;;3.90;;
32319;SDS011;19080;51.750;5.888;2024-03-25T13:44:37;5.30;;;3.17;;
32319;SDS011;19080;51.750;5.888;2024-03-25T13:47:03;5.50;;;3.58;;
32319;SDS011;19080;51.750;5.888;2024-03-25T13:49:29;6.30;;;3.20;;
32319;SDS011;19080;51.750;5.888;2024-03-25T13:51:58;4.75;;;3.08;;
32319;SDS011;19080;51.750;5.888;2024-03-25T13:54:27;9.02;;;3.95;;
32319;SDS011;19080;51.750;5.888;2024-03-25T13:56:53;4.07;;;3.03;;
32319;SDS011;19080;51.750;5.888;2024-03-25T13:59:19;8.77;;;3.70;;
32319;SDS011;19080;51.750;5.888;2024-03-25T14:01:44;6.60;;;3.75;;
32319;SDS011;19080;51.750;5.888;2024-03-25T14:04:10;7.13;;;3.42;;
32319;SDS011;19080;51.750;5.888;2024-03-25T14:06:36;7.03;;;3.00;;
32319;SDS011;19080;51.750;5.888;2024-03-25T14:09:03;5.32;;;3.17;;
32319;SDS011;19080;51.750;5.888;2024-03-25T14:11:35;5.05;;;3.28;;
32319;SDS011;19080;51.750;5.888;2024-03-25T14:14:01;7.45;;;3.35;;
32319;SDS011;19080;51.750;5.888;2024-03-25T14:16:28;6.72;;;3.00;;
32319;SDS011;19080;51.750;5.888;2024-03-25T14:18:54;8.88;;;3.45;;
32319;SDS011;19080;51.750;5.888;2024-03-25T14:21:20;4.53;;;2.72;;
32319;SDS011;19080;51.750;5.888;2024-03-25T14:23:45;7.32;;;3.13;;
32319;SDS011;19080;51.750;5.888;2024-03-25T14:26:11;7.32;;;3.13;;
32319;SDS011;19080;51.750;5.888;2024-03-25T14:28:40;5.03;;;3.20;;
32319;SDS011;19080;51.750;5.888;2024-03-25T14:31:06;7.57;;;2.92;;
32319;SDS011;19080;51.750;5.888;2024-03-25T14:33:31;5.28;;;3.00;;
32319;SDS011;19080;51.750;5.888;2024-03-25T14:35:57;5.70;;;3.22;;
32319;SDS011;19080;51.750;5.888;2024-03-25T14:38:23;5.13;;;2.90;;